createdAt,value
2023-01-25T00:01:15.584Z,10.07
2023-01-25T00:03:42.084Z,10.17
2023-01-25T00:06:10.139Z,10.27
2023-01-25T00:08:38.524Z,12.50
2023-01-25T00:11:05.167Z,9.27
2023-01-25T00:13:31.703Z,7.23
2023-01-25T00:16:04.668Z,7.20
2023-01-25T00:18:31.474Z,7.90
2023-01-25T00:20:58.269Z,9.80
2023-01-25T00:23:24.851Z,8.87
2023-01-25T00:25:58.730Z,8.17
2023-01-25T00:28:25.510Z,9.23
2023-01-25T00:30:52.074Z,9.07
2023-01-25T00:33:18.631Z,6.27
2023-01-25T00:35:45.217Z,7.43
2023-01-25T00:38:38.181Z,9.30
2023-01-25T00:41:04.760Z,8.87
2023-01-25T00:43:31.299Z,11.73
2023-01-25T00:46:01.383Z,12.13
2023-01-25T00:48:27.983Z,11.67
2023-01-25T00:50:54.584Z,12.87
2023-01-25T00:53:21.157Z,13.03
2023-01-25T00:55:53.839Z,13.23
2023-01-25T00:58:20.428Z,13.40
2023-01-25T01:00:47.389Z,11.93
2023-01-25T01:03:13.993Z,17.50
2023-01-25T01:05:40.586Z,13.17
2023-01-25T01:08:07.198Z,13.67
2023-01-25T01:10:33.720Z,11.07
2023-01-25T01:13:00.251Z,13.13
2023-01-25T01:15:26.885Z,13.53
2023-01-25T01:17:55.877Z,9.53
2023-01-25T01:20:22.568Z,10.23
2023-01-25T01:22:51.917Z,7.70
2023-01-25T01:25:18.427Z,5.97
2023-01-25T01:27:44.935Z,6.90
2023-01-25T01:30:11.568Z,5.07
2023-01-25T01:32:38.257Z,7.27
2023-01-25T01:35:05.467Z,6.40
2023-01-25T01:37:32.206Z,4.40
2023-01-25T01:39:58.748Z,6.60
2023-01-25T01:42:25.295Z,7.60
2023-01-25T01:44:52.582Z,9.57
2023-01-25T01:47:22.184Z,9.77
2023-01-25T01:49:53.624Z,10.17
2023-01-25T01:52:20.856Z,7.90
2023-01-25T01:54:49.069Z,8.40
2023-01-25T01:57:20.021Z,8.20
2023-01-25T01:59:54.531Z,6.47
2023-01-25T02:02:21.059Z,6.17
2023-01-25T02:04:47.662Z,6.57
2023-01-25T02:07:17.172Z,8.10
2023-01-25T02:09:43.680Z,6.47
2023-01-25T02:12:10.227Z,7.97
2023-01-25T02:14:36.788Z,10.10
2023-01-25T02:17:03.943Z,10.63
2023-01-25T02:19:42.743Z,9.27
2023-01-25T02:22:10.368Z,7.87
2023-01-25T02:24:36.912Z,7.53
2023-01-25T02:27:03.468Z,7.73
2023-01-25T02:29:29.967Z,7.20
2023-01-25T02:32:00.302Z,7.63
2023-01-25T02:34:26.841Z,7.63
2023-01-25T02:36:53.351Z,6.73
2023-01-25T02:39:20.662Z,7.20
2023-01-25T02:41:48.282Z,8.03
2023-01-25T02:44:18.662Z,8.93
2023-01-25T02:46:45.261Z,6.33
2023-01-25T02:49:11.899Z,7.93
2023-01-25T02:51:39.353Z,7.13
2023-01-25T02:54:07.469Z,5.33
2023-01-25T02:56:36.071Z,5.90
2023-01-25T02:59:05.903Z,6.17
2023-01-25T03:01:38.916Z,9.07
2023-01-25T03:04:05.752Z,5.03
2023-01-25T03:06:32.657Z,4.50
2023-01-25T03:08:59.385Z,5.97
2023-01-25T03:11:25.920Z,6.03
2023-01-25T03:13:52.570Z,5.03
2023-01-25T03:16:19.213Z,5.57
2023-01-25T03:18:45.835Z,6.97
2023-01-25T03:21:13.295Z,6.13
2023-01-25T03:23:39.847Z,7.47
2023-01-25T03:26:10.560Z,8.47
2023-01-25T03:28:37.484Z,6.63
2023-01-25T03:31:04.206Z,6.67
2023-01-25T03:33:30.789Z,7.00
2023-01-25T03:35:57.445Z,7.53
2023-01-25T03:38:24.018Z,6.33
2023-01-25T03:40:50.572Z,8.23
2023-01-25T03:43:17.070Z,6.97
2023-01-25T03:45:43.630Z,7.13
2023-01-25T03:48:10.348Z,8.97
2023-01-25T03:50:36.895Z,8.73
2023-01-25T03:53:07.734Z,9.47
2023-01-25T03:55:34.553Z,8.70
2023-01-25T03:58:01.182Z,9.67
2023-01-25T04:00:27.722Z,9.40
2023-01-25T04:02:54.255Z,6.17
2023-01-25T04:05:20.799Z,6.00
2023-01-25T04:07:47.365Z,9.03
2023-01-25T04:10:13.965Z,10.67
2023-01-25T04:12:40.502Z,5.97
2023-01-25T04:15:07.670Z,6.47
2023-01-25T04:17:34.335Z,5.10
2023-01-25T04:20:01.031Z,7.47
2023-01-25T04:22:27.594Z,8.67
2023-01-25T04:24:54.211Z,8.13
2023-01-25T04:27:20.701Z,5.87
2023-01-25T04:29:47.288Z,8.83
2023-01-25T04:32:13.971Z,9.37
2023-01-25T04:34:40.553Z,6.00
2023-01-25T04:37:07.130Z,5.80
2023-01-25T04:39:33.639Z,6.70
2023-01-25T04:42:00.188Z,5.60
2023-01-25T04:44:26.723Z,7.00
2023-01-25T04:46:53.330Z,7.17
2023-01-25T04:49:19.930Z,4.53
2023-01-25T04:51:46.449Z,5.53
2023-01-25T04:54:12.996Z,6.53
2023-01-25T04:56:40.131Z,6.07
2023-01-25T04:59:06.610Z,7.10
2023-01-25T05:01:36.525Z,6.77
2023-01-25T05:04:03.123Z,5.87
2023-01-25T05:06:29.663Z,6.77
2023-01-25T05:08:56.140Z,6.67
2023-01-25T05:11:22.675Z,5.00
2023-01-25T05:13:49.365Z,6.90
2023-01-25T05:16:15.966Z,5.73
2023-01-25T05:18:48.964Z,7.17
2023-01-25T05:21:34.708Z,6.93
2023-01-25T05:24:01.384Z,10.07
2023-01-25T05:26:46.763Z,6.87
2023-01-25T05:29:13.325Z,8.47
2023-01-25T05:31:39.850Z,8.90
2023-01-25T05:34:06.418Z,8.30
2023-01-25T05:36:32.917Z,10.20
2023-01-25T05:38:59.453Z,9.47
2023-01-25T05:41:25.964Z,12.80
2023-01-25T05:43:52.619Z,10.57
2023-01-25T05:46:19.208Z,9.07
2023-01-25T05:48:47.866Z,8.93
2023-01-25T05:51:14.494Z,7.57
2023-01-25T05:53:41.020Z,6.83
2023-01-25T05:56:08.271Z,8.23
2023-01-25T05:58:34.787Z,10.23
2023-01-25T06:01:02.563Z,8.50
2023-01-25T06:03:29.545Z,8.03
2023-01-25T06:05:56.613Z,7.83
2023-01-25T06:08:23.261Z,9.13
2023-01-25T06:10:49.820Z,7.27
2023-01-25T06:13:16.553Z,8.13
2023-01-25T06:15:43.252Z,7.53
2023-01-25T06:18:09.901Z,7.93
2023-01-25T06:20:36.439Z,6.90
2023-01-25T06:23:02.975Z,9.27
2023-01-25T06:25:29.542Z,8.20
2023-01-25T06:27:56.130Z,8.10
2023-01-25T06:30:22.894Z,7.50
2023-01-25T06:32:50.685Z,7.23
2023-01-25T06:35:17.295Z,6.77
2023-01-25T06:37:43.847Z,8.77
2023-01-25T06:40:10.776Z,6.57
2023-01-25T06:42:37.351Z,8.07
2023-01-25T06:45:04.057Z,9.17
2023-01-25T06:47:30.678Z,8.57
2023-01-25T06:49:57.238Z,6.93
2023-01-25T06:52:23.901Z,9.20
2023-01-25T06:54:50.653Z,10.17
2023-01-25T06:57:17.234Z,10.27
2023-01-25T06:59:43.867Z,7.97
2023-01-25T07:02:16.382Z,8.90
2023-01-25T07:04:42.947Z,8.53
2023-01-25T07:07:09.617Z,9.33
2023-01-25T07:09:36.391Z,9.07
2023-01-25T07:12:04.866Z,10.00
2023-01-25T07:14:31.668Z,10.23
2023-01-25T07:17:02.863Z,10.63
2023-01-25T07:19:30.252Z,11.10
2023-01-25T07:21:56.993Z,9.33
2023-01-25T07:24:27.384Z,8.53
2023-01-25T07:26:54.036Z,10.23
2023-01-25T07:29:20.781Z,9.17
2023-01-25T07:31:47.786Z,11.20
2023-01-25T07:34:14.623Z,11.20
2023-01-25T07:36:41.319Z,10.67
2023-01-25T07:39:11.030Z,10.27
2023-01-25T07:41:38.036Z,10.90
2023-01-25T07:44:04.765Z,12.07
2023-01-25T07:46:31.443Z,14.00
2023-01-25T07:49:01.257Z,11.03
2023-01-25T07:51:30.242Z,9.83
2023-01-25T07:53:57.842Z,13.00
2023-01-25T07:56:26.461Z,11.33
2023-01-25T07:58:54.644Z,13.27
2023-01-25T08:01:21.820Z,12.07
2023-01-25T08:03:52.052Z,11.47
2023-01-25T08:06:20.527Z,15.40
2023-01-25T08:08:48.026Z,14.97
2023-01-25T08:11:14.920Z,15.40
2023-01-25T08:13:43.704Z,13.67
2023-01-25T08:16:10.763Z,14.37
2023-01-25T08:18:37.498Z,13.73
2023-01-25T08:21:04.654Z,10.77
2023-01-25T08:23:31.394Z,13.60
2023-01-25T08:26:04.918Z,14.20
2023-01-25T08:28:31.578Z,13.60
2023-01-25T08:31:11.523Z,14.37
2023-01-25T08:33:38.204Z,13.00
2023-01-25T08:36:05.204Z,14.30
2023-01-25T08:38:32.518Z,18.30
2023-01-25T08:41:12.835Z,17.20
2023-01-25T08:43:39.456Z,18.03
2023-01-25T08:46:06.196Z,17.87
2023-01-25T08:48:32.827Z,14.00
2023-01-25T08:50:59.516Z,19.57
2023-01-25T08:53:29.513Z,18.53
2023-01-25T08:55:56.093Z,17.17
2023-01-25T08:58:22.702Z,13.93
2023-01-25T09:00:49.508Z,12.50
2023-01-25T09:03:18.380Z,20.33
2023-01-25T09:05:44.973Z,17.03
2023-01-25T09:08:12.147Z,17.87
2023-01-25T09:10:38.894Z,15.70
2023-01-25T09:13:07.663Z,15.47
2023-01-25T09:15:35.337Z,14.63
2023-01-25T09:18:01.997Z,13.37
2023-01-25T09:20:29.466Z,13.83
2023-01-25T09:22:59.581Z,14.10
2023-01-25T09:25:26.333Z,17.63
2023-01-25T09:27:53.186Z,14.83
2023-01-25T09:30:19.912Z,17.00
2023-01-25T09:32:48.820Z,16.83
2023-01-25T09:35:15.703Z,11.70
2023-01-25T09:37:42.338Z,16.43
2023-01-25T09:40:19.303Z,15.73
2023-01-25T09:42:45.795Z,12.93
2023-01-25T09:45:18.167Z,15.33
2023-01-25T09:47:49.538Z,11.87
2023-01-25T09:50:16.049Z,13.40
2023-01-25T09:52:54.788Z,13.93
2023-01-25T09:55:22.479Z,13.20
2023-01-25T09:57:50.693Z,13.20
2023-01-25T10:00:24.756Z,14.30
2023-01-25T10:02:58.746Z,14.03
2023-01-25T10:05:26.585Z,14.97
2023-01-25T10:08:15.033Z,12.77
2023-01-25T10:10:42.405Z,12.70
2023-01-25T10:13:12.534Z,14.63
2023-01-25T10:15:49.027Z,12.73
2023-01-25T10:18:37.255Z,12.50
2023-01-25T10:21:11.479Z,12.33
2023-01-25T10:23:44.908Z,11.63
2023-01-25T10:26:27.433Z,13.40
2023-01-25T10:29:00.068Z,14.17
2023-01-25T10:31:33.321Z,18.30
2023-01-25T10:33:59.940Z,18.27
2023-01-25T10:36:29.057Z,19.90
2023-01-25T10:38:59.612Z,14.33
2023-01-25T10:41:27.162Z,16.03
2023-01-25T10:44:13.656Z,12.17
2023-01-25T10:46:40.752Z,11.93
2023-01-25T10:49:18.125Z,12.07
2023-01-25T10:51:44.703Z,13.33
2023-01-25T10:54:14.472Z,11.33
2023-01-25T10:56:41.145Z,12.33
2023-01-25T10:59:16.746Z,13.57
2023-01-25T11:01:43.628Z,14.83
2023-01-25T11:04:25.586Z,16.97
2023-01-25T11:06:53.040Z,18.23
2023-01-25T11:09:20.926Z,13.93
2023-01-25T11:11:54.570Z,13.47
2023-01-25T11:14:21.546Z,13.17
2023-01-25T11:16:48.517Z,15.67
2023-01-25T11:19:44.420Z,13.97
2023-01-25T11:22:21.212Z,13.70
2023-01-25T11:24:47.828Z,14.40
2023-01-25T11:27:17.656Z,11.97
2023-01-25T11:29:47.153Z,11.77
2023-01-25T11:32:21.765Z,15.20
2023-01-25T11:34:52.431Z,12.50
2023-01-25T11:37:18.966Z,10.60
2023-01-25T11:40:04.166Z,13.47
2023-01-25T11:42:50.869Z,13.43
2023-01-25T11:45:32.909Z,10.13
2023-01-25T11:48:06.470Z,9.87
2023-01-25T11:50:40.224Z,9.80
2023-01-25T11:53:15.871Z,12.53
2023-01-25T11:55:45.847Z,9.03
2023-01-25T11:58:32.311Z,9.73
2023-01-25T12:01:22.476Z,11.20
2023-01-25T12:03:52.175Z,11.50
2023-01-25T12:06:18.849Z,12.03
2023-01-25T12:08:54.703Z,11.60
2023-01-25T12:11:32.810Z,10.13
2023-01-25T12:14:12.074Z,13.50
2023-01-25T12:16:57.258Z,13.13
2023-01-25T12:19:23.731Z,10.73
2023-01-25T12:21:59.268Z,10.65
2023-01-25T12:24:38.335Z,12.77
2023-01-25T12:27:07.920Z,16.70
2023-01-25T12:29:36.349Z,12.13
2023-01-25T12:32:11.625Z,12.03
2023-01-25T12:34:38.721Z,9.00
2023-01-25T12:37:22.367Z,10.53
2023-01-25T12:40:04.028Z,10.37
2023-01-25T12:42:38.308Z,10.00
2023-01-25T12:45:34.417Z,8.30
2023-01-25T12:48:04.974Z,9.57
2023-01-25T12:50:33.774Z,11.83
2023-01-25T12:53:00.266Z,12.83
2023-01-25T12:55:26.803Z,12.13
2023-01-25T12:58:02.480Z,14.10
2023-01-25T13:00:29.714Z,13.50
2023-01-25T13:03:02.776Z,16.97
2023-01-25T13:05:30.668Z,16.60
2023-01-25T13:08:26.704Z,13.87
2023-01-25T13:11:09.649Z,17.80
2023-01-25T13:13:36.153Z,18.37
2023-01-25T13:16:26.118Z,19.33
2023-01-25T13:18:52.847Z,18.00
2023-01-25T13:21:38.837Z,20.50
2023-01-25T13:24:41.112Z,14.90
2023-01-25T13:27:23.893Z,16.37
2023-01-25T13:30:00.583Z,16.20
2023-01-25T13:32:33.338Z,14.00
2023-01-25T13:34:59.991Z,15.87
2023-01-25T13:37:30.415Z,14.80
2023-01-25T13:40:07.804Z,15.90
2023-01-25T13:42:36.407Z,16.03
2023-01-25T13:45:23.430Z,17.90
2023-01-25T13:48:00.123Z,15.47
2023-01-25T13:50:27.320Z,14.60
2023-01-25T13:52:59.899Z,16.73
2023-01-25T13:55:26.899Z,15.53
2023-01-25T13:57:54.689Z,18.20
2023-01-25T14:00:21.552Z,17.43
2023-01-25T14:02:50.271Z,17.27
2023-01-25T14:05:20.557Z,19.03
2023-01-25T14:07:47.643Z,15.97
2023-01-25T14:10:15.616Z,16.10
2023-01-25T14:12:42.796Z,18.53
2023-01-25T14:15:18.155Z,19.67
2023-01-25T14:17:44.896Z,18.87
2023-01-25T14:20:18.421Z,17.10
2023-01-25T14:22:48.957Z,17.47
2023-01-25T14:25:17.296Z,17.30
2023-01-25T14:27:47.652Z,16.47
2023-01-25T14:30:23.498Z,14.70
2023-01-25T14:32:50.513Z,18.53
2023-01-25T14:35:54.134Z,17.67
2023-01-25T14:38:20.965Z,20.80
2023-01-25T14:40:47.535Z,17.30
2023-01-25T14:43:14.292Z,19.13
2023-01-25T14:45:41.036Z,20.70
2023-01-25T14:48:27.518Z,19.43
2023-01-25T14:50:54.027Z,19.97
2023-01-25T14:53:24.054Z,18.73
2023-01-25T14:55:50.589Z,16.90
2023-01-25T14:58:17.835Z,17.87
2023-01-25T15:00:52.180Z,18.83
2023-01-25T15:03:18.796Z,20.17
2023-01-25T15:05:45.681Z,19.83
2023-01-25T15:08:12.573Z,15.37
2023-01-25T15:10:50.174Z,18.93
2023-01-25T15:13:16.701Z,16.47
2023-01-25T15:15:52.501Z,15.53
2023-01-25T15:18:37.666Z,19.17
2023-01-25T15:21:04.193Z,18.23
2023-01-25T15:23:30.704Z,21.90
2023-01-25T15:26:00.533Z,22.83
2023-01-25T15:28:28.318Z,20.93
2023-01-25T15:30:55.307Z,17.47
2023-01-25T15:33:22.592Z,14.30
2023-01-25T15:35:49.459Z,16.83
2023-01-25T15:38:15.989Z,12.93
2023-01-25T15:40:42.929Z,14.53
2023-01-25T15:43:13.316Z,13.53
2023-01-25T15:45:40.610Z,14.93
2023-01-25T15:48:10.476Z,16.43
2023-01-25T15:50:37.049Z,23.77
2023-01-25T15:53:03.538Z,16.90
2023-01-25T15:55:30.077Z,14.23
2023-01-25T15:57:57.493Z,16.27
2023-01-25T16:00:24.139Z,17.63
2023-01-25T16:02:50.667Z,16.83
2023-01-25T16:05:18.627Z,16.23
2023-01-25T16:07:46.101Z,17.87
2023-01-25T16:10:22.617Z,19.70
2023-01-25T16:12:49.631Z,20.43
2023-01-25T16:15:16.610Z,21.97
2023-01-25T16:17:43.541Z,16.97
2023-01-25T16:20:14.694Z,17.63
2023-01-25T16:22:41.929Z,23.07
2023-01-25T16:25:09.691Z,14.90
2023-01-25T16:27:36.370Z,17.43
2023-01-25T16:30:04.699Z,16.17
2023-01-25T16:32:33.708Z,16.30
2023-01-25T16:35:00.470Z,17.33
2023-01-25T16:37:27.240Z,18.37
2023-01-25T16:39:54.545Z,20.77
2023-01-25T16:42:22.695Z,19.93
2023-01-25T16:44:49.819Z,21.93
2023-01-25T16:47:16.825Z,25.03
2023-01-25T16:49:43.451Z,22.00
2023-01-25T16:52:10.867Z,26.97
2023-01-25T16:54:43.182Z,21.20
2023-01-25T16:57:19.894Z,24.20
2023-01-25T16:59:47.092Z,22.80
2023-01-25T17:02:14.795Z,22.40
2023-01-25T17:04:41.464Z,19.67
2023-01-25T17:07:10.250Z,21.43
2023-01-25T17:09:37.091Z,24.57
2023-01-25T17:12:03.860Z,22.53
2023-01-25T17:14:30.430Z,24.03
2023-01-25T17:16:56.954Z,22.83
2023-01-25T17:19:23.717Z,23.43
2023-01-25T17:21:50.299Z,21.00
2023-01-25T17:24:17.642Z,19.90
2023-01-25T17:26:44.414Z,21.80
2023-01-25T17:29:11.010Z,23.30
2023-01-25T17:31:37.711Z,25.63
2023-01-25T17:34:04.915Z,31.50
2023-01-25T17:36:31.631Z,31.93
2023-01-25T17:39:07.995Z,35.87
2023-01-25T17:41:34.793Z,32.47
2023-01-25T17:44:01.364Z,30.07
2023-01-25T17:46:30.092Z,28.63
2023-01-25T17:48:57.498Z,26.13
2023-01-25T17:51:24.990Z,26.63
2023-01-25T17:53:52.097Z,26.97
2023-01-25T17:56:19.337Z,24.47
2023-01-25T17:58:45.906Z,27.13
2023-01-25T18:01:18.661Z,27.50
2023-01-25T18:03:45.680Z,25.23
2023-01-25T18:06:14.207Z,24.33
2023-01-25T18:08:41.587Z,26.17
2023-01-25T18:11:09.151Z,24.43
2023-01-25T18:13:38.854Z,20.07
2023-01-25T18:16:06.549Z,19.87
2023-01-25T18:18:33.259Z,17.67
2023-01-25T18:21:03.719Z,19.00
2023-01-25T18:23:31.773Z,19.13
2023-01-25T18:25:58.473Z,23.33
2023-01-25T18:28:25.748Z,24.10
2023-01-25T18:30:53.003Z,28.33
2023-01-25T18:33:19.904Z,24.07
2023-01-25T18:35:48.748Z,22.40
2023-01-25T18:38:16.106Z,20.63
2023-01-25T18:40:44.158Z,17.40
2023-01-25T18:43:12.356Z,17.43
2023-01-25T18:45:39.787Z,20.33
2023-01-25T18:48:06.588Z,17.00
2023-01-25T18:50:35.472Z,15.57
2023-01-25T18:53:02.035Z,14.53
2023-01-25T18:55:28.618Z,16.00
2023-01-25T18:57:57.395Z,15.33
2023-01-25T19:00:23.923Z,15.63
2023-01-25T19:02:50.508Z,17.23
2023-01-25T19:05:18.732Z,15.87
2023-01-25T19:07:45.299Z,17.13
2023-01-25T19:10:11.868Z,18.83
2023-01-25T19:12:38.452Z,19.33
2023-01-25T19:15:05.267Z,16.80
2023-01-25T19:17:32.176Z,18.27
2023-01-25T19:19:58.684Z,18.27
2023-01-25T19:22:26.025Z,17.60
2023-01-25T19:24:52.625Z,14.97
2023-01-25T19:27:22.774Z,14.67
2023-01-25T19:29:50.213Z,13.60
2023-01-25T19:32:16.835Z,15.47
2023-01-25T19:34:43.577Z,13.40
2023-01-25T19:37:10.227Z,15.23
2023-01-25T19:39:37.183Z,16.13
2023-01-25T19:42:03.969Z,14.57
2023-01-25T19:44:30.839Z,17.33
2023-01-25T19:46:57.335Z,15.90
2023-01-25T19:49:23.862Z,13.20
2023-01-25T19:51:53.420Z,12.27
2023-01-25T19:54:20.476Z,13.20
2023-01-25T19:56:47.600Z,14.00
2023-01-25T19:59:15.855Z,11.47
2023-01-25T20:01:46.633Z,15.20
2023-01-25T20:04:14.074Z,14.17
2023-01-25T20:06:41.045Z,16.50
2023-01-25T20:09:07.875Z,13.37
2023-01-25T20:11:35.280Z,13.53
2023-01-25T20:14:04.583Z,12.37
2023-01-25T20:16:32.444Z,15.03
2023-01-25T20:18:59.554Z,15.43
2023-01-25T20:21:26.392Z,13.90
2023-01-25T20:23:55.160Z,11.93
2023-01-25T20:26:23.257Z,10.73
2023-01-25T20:28:51.720Z,10.50
2023-01-25T20:31:21.387Z,9.87
2023-01-25T20:33:48.101Z,11.37
2023-01-25T20:36:14.775Z,8.93
2023-01-25T20:38:41.387Z,10.93
2023-01-25T20:41:08.584Z,7.97
2023-01-25T20:43:35.319Z,9.80
2023-01-25T20:46:02.123Z,8.43
2023-01-25T20:48:29.014Z,10.73
2023-01-25T20:51:05.200Z,9.50
2023-01-25T20:53:31.873Z,11.80
2023-01-25T20:55:58.472Z,9.77
2023-01-25T20:58:24.978Z,11.90
2023-01-25T21:00:51.614Z,11.73
2023-01-25T21:03:18.302Z,9.20
2023-01-25T21:05:50.908Z,10.07
2023-01-25T21:08:18.586Z,10.67
2023-01-25T21:10:49.210Z,12.17
2023-01-25T21:13:15.911Z,12.70
2023-01-25T21:15:42.443Z,13.57
2023-01-25T21:18:09.157Z,11.47
2023-01-25T21:20:36.391Z,12.43
2023-01-25T21:23:02.978Z,12.00
2023-01-25T21:25:29.508Z,14.67
2023-01-25T21:27:56.048Z,15.80
2023-01-25T21:30:23.287Z,16.87
2023-01-25T21:32:49.895Z,16.57
2023-01-25T21:35:16.434Z,15.13
2023-01-25T21:37:44.441Z,14.07
2023-01-25T21:40:11.359Z,13.17
2023-01-25T21:42:38.139Z,13.30
2023-01-25T21:45:23.534Z,13.50
2023-01-25T21:47:50.049Z,14.40
2023-01-25T21:50:36.333Z,16.40
2023-01-25T21:53:02.858Z,18.00
2023-01-25T21:55:29.429Z,19.70
2023-01-25T21:57:56.022Z,21.20
2023-01-25T22:00:22.559Z,15.27
2023-01-25T22:02:50.569Z,15.87
2023-01-25T22:05:17.138Z,15.80
2023-01-25T22:07:43.665Z,17.27
2023-01-25T22:10:10.772Z,20.43
2023-01-25T22:12:37.477Z,21.47
2023-01-25T22:15:04.127Z,20.10
2023-01-25T22:17:30.739Z,19.10
2023-01-25T22:19:57.218Z,20.20
2023-01-25T22:22:23.727Z,21.30
2023-01-25T22:24:50.275Z,16.80
2023-01-25T22:27:20.671Z,20.17
2023-01-25T22:29:47.212Z,21.23
2023-01-25T22:32:13.829Z,18.97
2023-01-25T22:34:40.462Z,21.27
2023-01-25T22:37:06.981Z,20.37
2023-01-25T22:39:33.487Z,21.57
2023-01-25T22:42:00.003Z,24.03
2023-01-25T22:44:26.573Z,20.33
2023-01-25T22:46:53.896Z,19.63
2023-01-25T22:49:20.462Z,25.90
2023-01-25T22:51:46.969Z,21.80
2023-01-25T22:54:13.511Z,22.73
2023-01-25T22:56:40.431Z,25.37
2023-01-25T22:59:08.176Z,23.07
2023-01-25T23:01:34.758Z,22.57
2023-01-25T23:04:01.356Z,24.23
2023-01-25T23:06:28.580Z,22.43
2023-01-25T23:08:59.965Z,23.77
2023-01-25T23:11:32.229Z,22.73
2023-01-25T23:14:18.018Z,24.47
2023-01-25T23:16:44.803Z,24.13
2023-01-25T23:19:11.325Z,22.90
2023-01-25T23:21:37.865Z,22.63
2023-01-25T23:24:04.522Z,22.70
2023-01-25T23:26:37.546Z,25.77
2023-01-25T23:29:05.611Z,21.87
2023-01-25T23:31:32.404Z,22.10
2023-01-25T23:33:59.686Z,23.87
2023-01-25T23:36:27.211Z,23.70
2023-01-25T23:38:54.062Z,22.80
2023-01-25T23:41:20.919Z,23.30
2023-01-25T23:43:47.526Z,22.07
2023-01-25T23:46:17.164Z,22.17
2023-01-25T23:48:43.931Z,25.00
2023-01-25T23:51:11.164Z,24.93
2023-01-25T23:53:38.029Z,25.87
2023-01-25T23:56:06.277Z,27.23
2023-01-25T23:58:33.375Z,26.83
